sensor_id;sensor_type;location;lat;lon;timestamp;pressure;altitude;pressure_sealevel;temperature;humidity
11856;BME280;5987;53.140;8.904;2023-09-18T00:02:20;101053.78;;;17.80;100.00
11856;BME280;5987;53.140;8.904;2023-09-18T00:05:24;101048.47;;;17.80;100.00
11856;BME280;5987;53.140;8.904;2023-09-18T00:08:29;101045.22;;;17.75;100.00
11856;BME280;5987;53.140;8.904;2023-09-18T00:11:34;101039.59;;;17.66;100.00
11856;BME280;5987;53.140;8.904;2023-09-18T00:14:38;101041.38;;;17.66;100.00
11856;BME280;5987;53.140;8.904;2023-09-18T00:17:41;101039.22;;;17.58;100.00
11856;BME280;5987;53.140;8.904;2023-09-18T00:20:46;101040.56;;;17.51;100.00
11856;BME280;5987;53.140;8.904;2023-09-18T00:23:52;101039.88;;;17.47;100.00
11856;BME280;5987;53.140;8.904;2023-09-18T00:26:56;101041.78;;;17.45;100.00
11856;BME280;5987;53.140;8.904;2023-09-18T00:29:59;101041.13;;;17.42;100.00
11856;BME280;5987;53.140;8.904;2023-09-18T00:33:04;101037.78;;;17.38;100.00
11856;BME280;5987;53.140;8.904;2023-09-18T00:36:07;101037.16;;;17.35;100.00
11856;BME280;5987;53.140;8.904;2023-09-18T00:39:13;101018.56;;;17.35;100.00
11856;BME280;5987;53.140;8.904;2023-09-18T00:42:18;101009.09;;;17.30;100.00
11856;BME280;5987;53.140;8.904;2023-09-18T00:45:21;101003.97;;;17.27;100.00
11856;BME280;5987;53.140;8.904;2023-09-18T00:48:25;100999.41;;;17.29;100.00
11856;BME280;5987;53.140;8.904;2023-09-18T00:51:30;100991.44;;;17.29;100.00
11856;BME280;5987;53.140;8.904;2023-09-18T00:54:38;100982.66;;;17.29;100.00
11856;BME280;5987;53.140;8.904;2023-09-18T00:57:44;100972.22;;;17.26;100.00
11856;BME280;5987;53.140;8.904;2023-09-18T01:00:48;100958.09;;;17.25;100.00
11856;BME280;5987;53.140;8.904;2023-09-18T01:03:53;100956.22;;;17.27;100.00
11856;BME280;5987;53.140;8.904;2023-09-18T01:06:57;100949.00;;;17.29;100.00
11856;BME280;5987;53.140;8.904;2023-09-18T01:10:07;100942.00;;;17.28;100.00
11856;BME280;5987;53.140;8.904;2023-09-18T01:13:14;100929.56;;;17.29;100.00
11856;BME280;5987;53.140;8.904;2023-09-18T01:16:30;100924.25;;;17.29;100.00
11856;BME280;5987;53.140;8.904;2023-09-18T01:19:40;100916.00;;;17.34;100.00
11856;BME280;5987;53.140;8.904;2023-09-18T01:22:45;100913.75;;;17.27;100.00
11856;BME280;5987;53.140;8.904;2023-09-18T01:25:51;100902.34;;;17.25;100.00
11856;BME280;5987;53.140;8.904;2023-09-18T01:28:55;100893.56;;;17.25;100.00
11856;BME280;5987;53.140;8.904;2023-09-18T01:31:58;100877.63;;;17.25;100.00
11856;BME280;5987;53.140;8.904;2023-09-18T01:35:05;100873.63;;;17.32;100.00
11856;BME280;5987;53.140;8.904;2023-09-18T01:38:12;100869.16;;;17.32;100.00
11856;BME280;5987;53.140;8.904;2023-09-18T01:41:16;100869.16;;;17.32;100.00
11856;BME280;5987;53.140;8.904;2023-09-18T01:44:20;100864.47;;;17.23;100.00
11856;BME280;5987;53.140;8.904;2023-09-18T01:47:24;100864.69;;;17.20;100.00
11856;BME280;5987;53.140;8.904;2023-09-18T01:50:29;100860.31;;;17.19;100.00
11856;BME280;5987;53.140;8.904;2023-09-18T01:53:34;100869.50;;;17.13;100.00
11856;BME280;5987;53.140;8.904;2023-09-18T01:56:39;100868.84;;;17.10;100.00
11856;BME280;5987;53.140;8.904;2023-09-18T01:59:42;100867.22;;;17.07;100.00
11856;BME280;5987;53.140;8.904;2023-09-18T02:02:48;100860.34;;;17.05;100.00
11856;BME280;5987;53.140;8.904;2023-09-18T02:06:12;100858.84;;;17.01;100.00
11856;BME280;5987;53.140;8.904;2023-09-18T02:09:18;100851.81;;;17.00;100.00
11856;BME280;5987;53.140;8.904;2023-09-18T02:12:22;100841.41;;;16.96;100.00
11856;BME280;5987;53.140;8.904;2023-09-18T02:15:26;100840.47;;;16.97;100.00
11856;BME280;5987;53.140;8.904;2023-09-18T02:18:29;100843.75;;;17.01;100.00
11856;BME280;5987;53.140;8.904;2023-09-18T02:21:33;100830.41;;;17.03;100.00
11856;BME280;5987;53.140;8.904;2023-09-18T02:24:38;100838.56;;;17.00;100.00
11856;BME280;5987;53.140;8.904;2023-09-18T02:27:42;100845.78;;;16.97;100.00
11856;BME280;5987;53.140;8.904;2023-09-18T02:30:45;100838.47;;;17.01;100.00
11856;BME280;5987;53.140;8.904;2023-09-18T02:33:49;100843.13;;;16.97;100.00
11856;BME280;5987;53.140;8.904;2023-09-18T02:36:53;100843.97;;;16.98;100.00
11856;BME280;5987;53.140;8.904;2023-09-18T02:39:58;100840.53;;;16.96;100.00
11856;BME280;5987;53.140;8.904;2023-09-18T02:43:02;100840.47;;;16.97;100.00
11856;BME280;5987;53.140;8.904;2023-09-18T02:46:06;100834.75;;;17.04;100.00
11856;BME280;5987;53.140;8.904;2023-09-18T02:49:10;100828.69;;;17.02;100.00
11856;BME280;5987;53.140;8.904;2023-09-18T02:52:14;100812.97;;;16.98;100.00
11856;BME280;5987;53.140;8.904;2023-09-18T02:55:19;100811.09;;;17.01;100.00
11856;BME280;5987;53.140;8.904;2023-09-18T02:58:23;100798.66;;;17.01;100.00
11856;BME280;5987;53.140;8.904;2023-09-18T03:01:30;100799.22;;;17.06;100.00
11856;BME280;5987;53.140;8.904;2023-09-18T03:04:34;100800.19;;;17.05;100.00
11856;BME280;5987;53.140;8.904;2023-09-18T03:07:38;100797.25;;;16.95;100.00
11856;BME280;5987;53.140;8.904;2023-09-18T03:10:43;100798.09;;;16.96;100.00
11856;BME280;5987;53.140;8.904;2023-09-18T03:13:47;100786.66;;;16.95;100.00
11856;BME280;5987;53.140;8.904;2023-09-18T03:16:51;100780.09;;;17.01;100.00
11856;BME280;5987;53.140;8.904;2023-09-18T03:19:55;100773.19;;;16.98;100.00
11856;BME280;5987;53.140;8.904;2023-09-18T03:23:02;100778.28;;;17.02;100.00
11856;BME280;5987;53.140;8.904;2023-09-18T03:26:07;100771.69;;;16.94;100.00
11856;BME280;5987;53.140;8.904;2023-09-18T03:29:11;100767.16;;;16.96;100.00
11856;BME280;5987;53.140;8.904;2023-09-18T03:32:14;100747.72;;;16.96;100.00
11856;BME280;5987;53.140;8.904;2023-09-18T03:35:19;100748.69;;;16.95;100.00
11856;BME280;5987;53.140;8.904;2023-09-18T03:38:23;100735.53;;;16.93;100.00
11856;BME280;5987;53.140;8.904;2023-09-18T03:41:28;100736.56;;;16.91;100.00
11856;BME280;5987;53.140;8.904;2023-09-18T03:44:36;100731.91;;;16.94;100.00
11856;BME280;5987;53.140;8.904;2023-09-18T03:47:41;100716.53;;;17.00;100.00
11856;BME280;5987;53.140;8.904;2023-09-18T03:50:47;100705.94;;;17.00;100.00
11856;BME280;5987;53.140;8.904;2023-09-18T03:53:50;100702.88;;;17.06;100.00
11856;BME280;5987;53.140;8.904;2023-09-18T03:56:56;100682.50;;;17.06;100.00
11856;BME280;5987;53.140;8.904;2023-09-18T03:59:59;100685.63;;;17.13;100.00
11856;BME280;5987;53.140;8.904;2023-09-18T04:03:03;100674.56;;;17.19;100.00
11856;BME280;5987;53.140;8.904;2023-09-18T04:06:07;100665.00;;;17.17;100.00
11856;BME280;5987;53.140;8.904;2023-09-18T04:09:11;100644.94;;;17.12;100.00
11856;BME280;5987;53.140;8.904;2023-09-18T04:12:16;100636.66;;;17.17;100.00
11856;BME280;5987;53.140;8.904;2023-09-18T04:15:26;100615.44;;;17.17;100.00
11856;BME280;5987;53.140;8.904;2023-09-18T04:18:32;100607.41;;;17.19;100.00
11856;BME280;5987;53.140;8.904;2023-09-18T04:21:36;100606.53;;;17.18;100.00
11856;BME280;5987;53.140;8.904;2023-09-18T04:24:40;100601.22;;;17.18;100.00
11856;BME280;5987;53.140;8.904;2023-09-18T04:27:45;100600.59;;;17.14;100.00
11856;BME280;5987;53.140;8.904;2023-09-18T04:30:49;100599.13;;;17.10;100.00
11856;BME280;5987;53.140;8.904;2023-09-18T04:33:53;100588.69;;;17.07;100.00
11856;BME280;5987;53.140;8.904;2023-09-18T04:36:57;100583.72;;;17.03;100.00
11856;BME280;5987;53.140;8.904;2023-09-18T04:40:00;100577.03;;;17.10;100.00
11856;BME280;5987;53.140;8.904;2023-09-18T04:43:07;100562.09;;;17.09;100.00
11856;BME280;5987;53.140;8.904;2023-09-18T04:46:11;100567.38;;;17.09;100.00
11856;BME280;5987;53.140;8.904;2023-09-18T04:49:15;100573.84;;;17.05;100.00
11856;BME280;5987;53.140;8.904;2023-09-18T04:52:19;100560.78;;;17.02;100.00
11856;BME280;5987;53.140;8.904;2023-09-18T04:55:23;100550.50;;;16.97;100.00
11856;BME280;5987;53.140;8.904;2023-09-18T04:58:28;100542.66;;;16.95;100.00
11856;BME280;5987;53.140;8.904;2023-09-18T05:01:31;100528.22;;;17.00;100.00
11856;BME280;5987;53.140;8.904;2023-09-18T05:04:35;100517.19;;;17.06;100.00
11856;BME280;5987;53.140;8.904;2023-09-18T05:07:39;100507.66;;;17.03;100.00
11856;BME280;5987;53.140;8.904;2023-09-18T05:10:43;100498.72;;;17.17;100.00
11856;BME280;5987;53.140;8.904;2023-09-18T05:13:48;100486.19;;;17.19;100.00
11856;BME280;5987;53.140;8.904;2023-09-18T05:16:52;100481.50;;;17.23;100.00
11856;BME280;5987;53.140;8.904;2023-09-18T05:19:56;100474.94;;;17.28;100.00
11856;BME280;5987;53.140;8.904;2023-09-18T05:22:59;100469.91;;;17.37;100.00
11856;BME280;5987;53.140;8.904;2023-09-18T05:26:04;100466.09;;;17.41;100.00
11856;BME280;5987;53.140;8.904;2023-09-18T05:29:09;100456.94;;;17.45;100.00
11856;BME280;5987;53.140;8.904;2023-09-18T05:32:13;100465.22;;;17.53;100.00
11856;BME280;5987;53.140;8.904;2023-09-18T05:35:17;100464.25;;;17.54;100.00
11856;BME280;5987;53.140;8.904;2023-09-18T05:38:21;100448.94;;;17.58;100.00
11856;BME280;5987;53.140;8.904;2023-09-18T05:41:24;100442.13;;;17.66;100.00
11856;BME280;5987;53.140;8.904;2023-09-18T05:44:32;100433.81;;;17.71;100.00
11856;BME280;5987;53.140;8.904;2023-09-18T05:47:36;100430.59;;;17.79;100.00
11856;BME280;5987;53.140;8.904;2023-09-18T05:50:40;100424.22;;;17.81;100.00
11856;BME280;5987;53.140;8.904;2023-09-18T05:53:44;100430.59;;;17.92;100.00
11856;BME280;5987;53.140;8.904;2023-09-18T05:56:48;100447.56;;;17.89;100.00
11856;BME280;5987;53.140;8.904;2023-09-18T05:59:55;100440.88;;;17.96;100.00
11856;BME280;5987;53.140;8.904;2023-09-18T06:02:59;100434.38;;;18.00;100.00
11856;BME280;5987;53.140;8.904;2023-09-18T06:06:03;100441.16;;;18.05;100.00
11856;BME280;5987;53.140;8.904;2023-09-18T06:09:07;100434.38;;;18.00;100.00
11856;BME280;5987;53.140;8.904;2023-09-18T06:12:11;100419.84;;;17.93;100.00
11856;BME280;5987;53.140;8.904;2023-09-18T06:15:27;100420.59;;;17.82;100.00
11856;BME280;5987;53.140;8.904;2023-09-18T06:18:30;100416.88;;;17.85;100.00
11856;BME280;5987;53.140;8.904;2023-09-18T06:21:34;100419.63;;;17.96;100.00
11856;BME280;5987;53.140;8.904;2023-09-18T06:24:38;100418.44;;;18.00;100.00
11856;BME280;5987;53.140;8.904;2023-09-18T06:27:42;100432.81;;;18.09;100.00
11856;BME280;5987;53.140;8.904;2023-09-18T06:30:47;100428.34;;;18.10;100.00
11856;BME280;5987;53.140;8.904;2023-09-18T06:33:51;100417.66;;;18.23;100.00
11856;BME280;5987;53.140;8.904;2023-09-18T06:36:54;100414.41;;;18.30;100.00
11856;BME280;5987;53.140;8.904;2023-09-18T06:39:58;100405.00;;;18.49;100.00
11856;BME280;5987;53.140;8.904;2023-09-18T06:43:05;100390.78;;;18.61;100.00
11856;BME280;5987;53.140;8.904;2023-09-18T06:46:10;100382.22;;;18.80;100.00
11856;BME280;5987;53.140;8.904;2023-09-18T06:49:14;100372.81;;;18.99;100.00
11856;BME280;5987;53.140;8.904;2023-09-18T06:52:18;100383.06;;;19.15;100.00
11856;BME280;5987;53.140;8.904;2023-09-18T06:55:21;100372.16;;;19.18;100.00
11856;BME280;5987;53.140;8.904;2023-09-18T06:58:25;100370.22;;;19.20;100.00
11856;BME280;5987;53.140;8.904;2023-09-18T07:01:30;100368.50;;;19.30;100.00
11856;BME280;5987;53.140;8.904;2023-09-18T07:04:35;100366.47;;;19.23;100.00
11856;BME280;5987;53.140;8.904;2023-09-18T07:07:39;100363.91;;;19.21;100.00
11856;BME280;5987;53.140;8.904;2023-09-18T07:10:43;100373.84;;;19.19;100.00
11856;BME280;5987;53.140;8.904;2023-09-18T07:13:48;100369.50;;;19.07;100.00
11856;BME280;5987;53.140;8.904;2023-09-18T07:16:54;100370.97;;;18.99;100.00
11856;BME280;5987;53.140;8.904;2023-09-18T07:19:58;100361.41;;;18.97;100.00
11856;BME280;5987;53.140;8.904;2023-09-18T07:23:03;100356.94;;;18.86;100.00
11856;BME280;5987;53.140;8.904;2023-09-18T07:26:07;100367.09;;;18.81;100.00
11856;BME280;5987;53.140;8.904;2023-09-18T07:29:11;100361.66;;;18.82;100.00
11856;BME280;5987;53.140;8.904;2023-09-18T07:32:17;100362.47;;;18.83;100.00
11856;BME280;5987;53.140;8.904;2023-09-18T07:35:39;100369.03;;;18.90;100.00
11856;BME280;5987;53.140;8.904;2023-09-18T07:38:43;100372.41;;;18.81;100.00
11856;BME280;5987;53.140;8.904;2023-09-18T07:41:47;100384.97;;;18.79;100.00
11856;BME280;5987;53.140;8.904;2023-09-18T07:44:51;100401.16;;;18.76;100.00
11856;BME280;5987;53.140;8.904;2023-09-18T07:47:56;100395.16;;;18.74;100.00
11856;BME280;5987;53.140;8.904;2023-09-18T07:51:00;100401.91;;;18.66;100.00
11856;BME280;5987;53.140;8.904;2023-09-18T07:54:04;100406.09;;;18.58;100.00
11856;BME280;5987;53.140;8.904;2023-09-18T07:57:08;100415.28;;;18.54;100.00
11856;BME280;5987;53.140;8.904;2023-09-18T08:00:12;100424.25;;;18.52;100.00
11856;BME280;5987;53.140;8.904;2023-09-18T08:03:19;100422.19;;;18.56;100.00
11856;BME280;5987;53.140;8.904;2023-09-18T08:06:24;100412.03;;;18.61;100.00
11856;BME280;5987;53.140;8.904;2023-09-18T08:09:28;100428.00;;;18.73;100.00
11856;BME280;5987;53.140;8.904;2023-09-18T08:12:32;100426.81;;;18.77;100.00
11856;BME280;5987;53.140;8.904;2023-09-18T08:15:36;100420.78;;;18.86;100.00
11856;BME280;5987;53.140;8.904;2023-09-18T08:18:42;100410.28;;;18.96;100.00
11856;BME280;5987;53.140;8.904;2023-09-18T08:21:46;100402.19;;;19.09;100.00
11856;BME280;5987;53.140;8.904;2023-09-18T08:24:50;100413.53;;;19.11;100.00
11856;BME280;5987;53.140;8.904;2023-09-18T08:27:54;100404.22;;;19.16;100.00
11856;BME280;5987;53.140;8.904;2023-09-18T08:30:59;100417.63;;;19.26;100.00
11856;BME280;5987;53.140;8.904;2023-09-18T08:34:05;100416.53;;;19.29;100.00
11856;BME280;5987;53.140;8.904;2023-09-18T08:37:09;100418.09;;;19.43;100.00
11856;BME280;5987;53.140;8.904;2023-09-18T08:40:13;100417.41;;;19.73;100.00
11856;BME280;5987;53.140;8.904;2023-09-18T08:43:19;100427.63;;;20.00;100.00
11856;BME280;5987;53.140;8.904;2023-09-18T08:46:23;100409.34;;;20.28;100.00
11856;BME280;5987;53.140;8.904;2023-09-18T08:49:50;100389.00;;;20.58;100.00
11856;BME280;5987;53.140;8.904;2023-09-18T08:52:56;100388.06;;;20.90;100.00
11856;BME280;5987;53.140;8.904;2023-09-18T08:56:01;100369.16;;;21.03;100.00
11856;BME280;5987;53.140;8.904;2023-09-18T08:59:05;100362.59;;;21.17;100.00
11856;BME280;5987;53.140;8.904;2023-09-18T09:02:09;100362.06;;;21.42;100.00
11856;BME280;5987;53.140;8.904;2023-09-18T09:05:35;100349.38;;;21.45;100.00
11856;BME280;5987;53.140;8.904;2023-09-18T09:08:39;100342.13;;;21.86;100.00
11856;BME280;5987;53.140;8.904;2023-09-18T09:11:49;100323.56;;;21.74;100.00
11856;BME280;5987;53.140;8.904;2023-09-18T09:15:03;100334.66;;;21.80;100.00
11856;BME280;5987;53.140;8.904;2023-09-18T09:18:08;100347.19;;;21.69;100.00
11856;BME280;5987;53.140;8.904;2023-09-18T09:21:13;100359.84;;;21.77;100.00
11856;BME280;5987;53.140;8.904;2023-09-18T09:24:17;100350.84;;;21.68;100.00
11856;BME280;5987;53.140;8.904;2023-09-18T09:27:42;100333.41;;;21.64;100.00
11856;BME280;5987;53.140;8.904;2023-09-18T09:30:47;100337.34;;;21.80;100.00
11856;BME280;5987;53.140;8.904;2023-09-18T09:33:51;100355.34;;;21.78;100.00
11856;BME280;5987;53.140;8.904;2023-09-18T09:36:57;100341.84;;;21.89;100.00
11856;BME280;5987;53.140;8.904;2023-09-18T09:40:05;100352.38;;;22.00;100.00
11856;BME280;5987;53.140;8.904;2023-09-18T09:43:13;100347.00;;;22.20;100.00
11856;BME280;5987;53.140;8.904;2023-09-18T09:46:18;100335.19;;;22.13;100.00
11856;BME280;5987;53.140;8.904;2023-09-18T09:49:24;100319.09;;;22.42;100.00
11856;BME280;5987;53.140;8.904;2023-09-18T09:52:33;100331.75;;;22.30;100.00
11856;BME280;5987;53.140;8.904;2023-09-18T09:55:37;100341.34;;;22.33;100.00
11856;BME280;5987;53.140;8.904;2023-09-18T09:59:04;100327.69;;;22.26;100.00
11856;BME280;5987;53.140;8.904;2023-09-18T10:02:11;100343.75;;;22.36;100.00
11856;BME280;5987;53.140;8.904;2023-09-18T10:05:27;100347.41;;;22.25;100.00
11856;BME280;5987;53.140;8.904;2023-09-18T10:08:34;100351.06;;;22.43;100.00
11856;BME280;5987;53.140;8.904;2023-09-18T10:11:44;100349.34;;;22.42;100.00
11856;BME280;5987;53.140;8.904;2023-09-18T10:14:52;100349.28;;;22.62;100.00
11856;BME280;5987;53.140;8.904;2023-09-18T10:18:17;100334.28;;;22.32;100.00
11856;BME280;5987;53.140;8.904;2023-09-18T10:21:30;100359.78;;;22.26;100.00
11856;BME280;5987;53.140;8.904;2023-09-18T10:24:40;100359.38;;;22.31;100.00
11856;BME280;5987;53.140;8.904;2023-09-18T10:27:47;100354.91;;;22.12;100.00
11856;BME280;5987;53.140;8.904;2023-09-18T10:30:52;100359.97;;;22.05;100.00
11856;BME280;5987;53.140;8.904;2023-09-18T10:33:58;100363.22;;;22.08;100.00
11856;BME280;5987;53.140;8.904;2023-09-18T10:37:04;100353.91;;;22.13;100.00
11856;BME280;5987;53.140;8.904;2023-09-18T10:40:11;100344.31;;;22.30;100.00
11856;BME280;5987;53.140;8.904;2023-09-18T10:43:17;100355.84;;;22.40;100.00
11856;BME280;5987;53.140;8.904;2023-09-18T10:46:21;100353.47;;;22.37;100.00
11856;BME280;5987;53.140;8.904;2023-09-18T10:49:25;100351.63;;;22.18;100.00
11856;BME280;5987;53.140;8.904;2023-09-18T10:52:30;100352.19;;;22.31;100.00
11856;BME280;5987;53.140;8.904;2023-09-18T10:55:35;100366.00;;;22.17;100.00
11856;BME280;5987;53.140;8.904;2023-09-18T10:58:41;100349.53;;;22.21;100.00
11856;BME280;5987;53.140;8.904;2023-09-18T11:01:45;100357.84;;;22.18;100.00
11856;BME280;5987;53.140;8.904;2023-09-18T11:04:53;100361.34;;;22.19;100.00
11856;BME280;5987;53.140;8.904;2023-09-18T11:08:27;100361.78;;;22.14;100.00
11856;BME280;5987;53.140;8.904;2023-09-18T11:11:33;100360.09;;;22.13;100.00
11856;BME280;5987;53.140;8.904;2023-09-18T11:14:47;100368.53;;;22.28;100.00
11856;BME280;5987;53.140;8.904;2023-09-18T11:18:01;100366.81;;;22.47;100.00
11856;BME280;5987;53.140;8.904;2023-09-18T11:21:12;100379.97;;;22.68;100.00
11856;BME280;5987;53.140;8.904;2023-09-18T11:24:19;100380.44;;;22.91;100.00
11856;BME280;5987;53.140;8.904;2023-09-18T11:27:26;100375.13;;;23.09;100.00
11856;BME280;5987;53.140;8.904;2023-09-18T11:30:51;100381.22;;;22.73;100.00
11856;BME280;5987;53.140;8.904;2023-09-18T11:34:12;100373.50;;;22.70;100.00
11856;BME280;5987;53.140;8.904;2023-09-18T11:37:20;100375.28;;;22.79;100.00
11856;BME280;5987;53.140;8.904;2023-09-18T11:40:31;100375.63;;;22.94;100.00
11856;BME280;5987;53.140;8.904;2023-09-18T11:43:38;100376.09;;;23.18;100.00
11856;BME280;5987;53.140;8.904;2023-09-18T11:46:47;100376.41;;;23.05;100.00
11856;BME280;5987;53.140;8.904;2023-09-18T11:49:58;100372.72;;;23.16;100.00
11856;BME280;5987;53.140;8.904;2023-09-18T11:53:04;100373.31;;;23.09;100.00
11856;BME280;5987;53.140;8.904;2023-09-18T11:56:11;100362.88;;;23.06;100.00
11856;BME280;5987;53.140;8.904;2023-09-18T11:59:34;100378.50;;;22.83;100.00
11856;BME280;5987;53.140;8.904;2023-09-18T12:02:39;100383.38;;;22.60;100.00
11856;BME280;5987;53.140;8.904;2023-09-18T12:06:04;100378.53;;;22.73;100.00
11856;BME280;5987;53.140;8.904;2023-09-18T12:09:08;100381.59;;;22.51;100.00
11856;BME280;5987;53.140;8.904;2023-09-18T12:12:16;100371.88;;;22.40;100.00
11856;BME280;5987;53.140;8.904;2023-09-18T12:15:38;100368.50;;;22.48;100.00
11856;BME280;5987;53.140;8.904;2023-09-18T12:18:46;100374.88;;;22.74;100.00
11856;BME280;5987;53.140;8.904;2023-09-18T12:21:51;100367.09;;;23.09;100.00
11856;BME280;5987;53.140;8.904;2023-09-18T12:25:09;100375.38;;;23.43;100.00
11856;BME280;5987;53.140;8.904;2023-09-18T12:28:17;100380.88;;;23.60;100.00
11856;BME280;5987;53.140;8.904;2023-09-18T12:31:41;100382.59;;;23.61;100.00
11856;BME280;5987;53.140;8.904;2023-09-18T12:34:48;100375.47;;;23.88;100.00
11856;BME280;5987;53.140;8.904;2023-09-18T12:37:52;100358.31;;;23.62;100.00
11856;BME280;5987;53.140;8.904;2023-09-18T12:40:56;100374.09;;;23.66;100.00
11856;BME280;5987;53.140;8.904;2023-09-18T12:44:08;100377.09;;;23.98;100.00
11856;BME280;5987;53.140;8.904;2023-09-18T12:47:14;100373.84;;;23.95;100.00
11856;BME280;5987;53.140;8.904;2023-09-18T12:50:18;100375.00;;;23.74;100.00
11856;BME280;5987;53.140;8.904;2023-09-18T12:53:23;100376.16;;;23.54;100.00
11856;BME280;5987;53.140;8.904;2023-09-18T12:56:27;100372.34;;;23.74;100.00
11856;BME280;5987;53.140;8.904;2023-09-18T12:59:31;100364.59;;;23.53;100.00
11856;BME280;5987;53.140;8.904;2023-09-18T13:02:38;100367.25;;;23.35;100.00
11856;BME280;5987;53.140;8.904;2023-09-18T13:05:42;100368.41;;;23.51;100.00
11856;BME280;5987;53.140;8.904;2023-09-18T13:08:46;100364.50;;;23.27;100.00
11856;BME280;5987;53.140;8.904;2023-09-18T13:11:55;100366.50;;;23.25;100.00
11856;BME280;5987;53.140;8.904;2023-09-18T13:15:00;100365.25;;;23.37;100.00
11856;BME280;5987;53.140;8.904;2023-09-18T13:18:11;100350.94;;;23.28;100.00
11856;BME280;5987;53.140;8.904;2023-09-18T13:21:15;100349.97;;;23.29;100.00
11856;BME280;5987;53.140;8.904;2023-09-18T13:24:27;100353.78;;;23.45;100.00
11856;BME280;5987;53.140;8.904;2023-09-18T13:27:31;100363.88;;;23.33;100.00
11856;BME280;5987;53.140;8.904;2023-09-18T13:30:37;100360.44;;;23.23;100.00
11856;BME280;5987;53.140;8.904;2023-09-18T13:33:44;100364.09;;;23.22;100.00
11856;BME280;5987;53.140;8.904;2023-09-18T13:36:48;100362.97;;;23.42;100.00
11856;BME280;5987;53.140;8.904;2023-09-18T13:39:51;100364.19;;;23.30;100.00
11856;BME280;5987;53.140;8.904;2023-09-18T13:42:55;100356.84;;;24.04;100.00
11856;BME280;5987;53.140;8.904;2023-09-18T13:45:59;100354.09;;;24.48;100.00
11856;BME280;5987;53.140;8.904;2023-09-18T13:49:08;100351.41;;;24.40;100.00
11856;BME280;5987;53.140;8.904;2023-09-18T13:52:12;100352.38;;;24.13;100.00
11856;BME280;5987;53.140;8.904;2023-09-18T13:55:16;100347.75;;;23.97;100.00
11856;BME280;5987;53.140;8.904;2023-09-18T13:58:20;100339.50;;;24.17;100.00
11856;BME280;5987;53.140;8.904;2023-09-18T14:01:24;100323.25;;;24.53;100.00
11856;BME280;5987;53.140;8.904;2023-09-18T14:04:32;100332.56;;;24.32;100.00
11856;BME280;5987;53.140;8.904;2023-09-18T14:07:36;100326.44;;;23.77;100.00
11856;BME280;5987;53.140;8.904;2023-09-18T14:10:41;100321.75;;;23.79;100.00
11856;BME280;5987;53.140;8.904;2023-09-18T14:13:45;100327.50;;;23.85;100.00
11856;BME280;5987;53.140;8.904;2023-09-18T14:16:50;100333.81;;;24.20;100.00
11856;BME280;5987;53.140;8.904;2023-09-18T14:19:59;100338.75;;;24.06;100.00
11856;BME280;5987;53.140;8.904;2023-09-18T14:23:03;100329.09;;;24.13;100.00
11856;BME280;5987;53.140;8.904;2023-09-18T14:26:08;100328.97;;;23.97;100.00
11856;BME280;5987;53.140;8.904;2023-09-18T14:29:14;100318.03;;;24.17;100.00
11856;BME280;5987;53.140;8.904;2023-09-18T14:32:17;100315.19;;;24.18;100.00
11856;BME280;5987;53.140;8.904;2023-09-18T14:35:22;100316.19;;;24.17;100.00
11856;BME280;5987;53.140;8.904;2023-09-18T14:38:26;100315.19;;;24.18;100.00
11856;BME280;5987;53.140;8.904;2023-09-18T14:41:30;100313.09;;;24.04;100.00
11856;BME280;5987;53.140;8.904;2023-09-18T14:44:34;100314.69;;;23.88;100.00
11856;BME280;5987;53.140;8.904;2023-09-18T14:47:37;100317.09;;;23.81;100.00
11856;BME280;5987;53.140;8.904;2023-09-18T14:50:43;100314.56;;;23.80;100.00
11856;BME280;5987;53.140;8.904;2023-09-18T14:53:47;100310.50;;;23.76;100.00
11856;BME280;5987;53.140;8.904;2023-09-18T14:56:50;100306.31;;;23.91;100.00
11856;BME280;5987;53.140;8.904;2023-09-18T14:59:54;100308.84;;;23.93;100.00
11856;BME280;5987;53.140;8.904;2023-09-18T15:02:58;100305.81;;;23.96;100.00
11856;BME280;5987;53.140;8.904;2023-09-18T15:06:04;100307.63;;;23.51;100.00
11856;BME280;5987;53.140;8.904;2023-09-18T15:09:09;100294.84;;;23.45;100.00
11856;BME280;5987;53.140;8.904;2023-09-18T15:12:13;100302.03;;;23.44;100.00
11856;BME280;5987;53.140;8.904;2023-09-18T15:15:17;100300.88;;;23.47;100.00
11856;BME280;5987;53.140;8.904;2023-09-18T15:18:21;100282.28;;;23.45;100.00
11856;BME280;5987;53.140;8.904;2023-09-18T15:21:26;100286.50;;;23.48;100.00
11856;BME280;5987;53.140;8.904;2023-09-18T15:24:30;100294.78;;;23.37;100.00
11856;BME280;5987;53.140;8.904;2023-09-18T15:27:35;100295.53;;;23.47;100.00
11856;BME280;5987;53.140;8.904;2023-09-18T15:30:39;100296.38;;;23.48;100.00
11856;BME280;5987;53.140;8.904;2023-09-18T15:33:43;100292.06;;;23.19;100.00
11856;BME280;5987;53.140;8.904;2023-09-18T15:36:48;100290.78;;;23.23;100.00
11856;BME280;5987;53.140;8.904;2023-09-18T15:39:52;100291.19;;;23.28;100.00
11856;BME280;5987;53.140;8.904;2023-09-18T15:42:56;100286.41;;;23.40;100.00
11856;BME280;5987;53.140;8.904;2023-09-18T15:46:00;100290.31;;;23.45;100.00
11856;BME280;5987;53.140;8.904;2023-09-18T15:49:04;100278.06;;;23.43;100.00
11856;BME280;5987;53.140;8.904;2023-09-18T15:52:09;100274.63;;;23.51;100.00
11856;BME280;5987;53.140;8.904;2023-09-18T15:55:13;100277.38;;;23.59;100.00
11856;BME280;5987;53.140;8.904;2023-09-18T15:58:17;100277.63;;;23.66;100.00
11856;BME280;5987;53.140;8.904;2023-09-18T16:01:23;100274.47;;;23.70;100.00
11856;BME280;5987;53.140;8.904;2023-09-18T16:04:26;100274.78;;;23.67;100.00
11856;BME280;5987;53.140;8.904;2023-09-18T16:07:33;100271.50;;;23.19;100.00
11856;BME280;5987;53.140;8.904;2023-09-18T16:10:41;100269.78;;;23.00;100.00
11856;BME280;5987;53.140;8.904;2023-09-18T16:13:45;100278.56;;;22.92;100.00